Rena Lara, Mississippi
Current Conditions -  °F | °C
As of 6:15 PM on Sunday 25 Jan 2015 (Local Time) from KCKM Reporting Station
Overcast Overcast  
Wind Chill: 50°   Ceiling: 7500
Heat Index: 50°   Visibility: 10mi
Dew Point: 39°   Wind: 15mph
Humidity: 66%   Direction: 290°WNW
Pressure: 29.86"   Gusts: 23mph
Location:  34.15°N, 90.78°W
Report Text: KCKM 260015Z AUTO 29013G20KT 10SM BKN075 OVC095 10/04 A2986 RMK AO1
Loading
Personal Weather Stations






























Interactive Weather Map New forecast layout! Learn more

10-Day Weather Forecast

Advertisements
Track Severe Weather on mobile